• Join FlightAware (Why Join?)
  • Login
  • US Flag 
03:01AM EDT


 

Airport Tracker/Info


-or-


 

Live Flight TrackerFlight Track Log ✈ NKS236 ✈ 19-Aug-2013 ✈ SKMD / EOH - KFLL

Flight Track Log - Related Links

Times and Time Zones

All times are in EDT time to prevent confusion due to time zone crossing. See the NKS236 flight status page for this flight to view local times or setup timezone preferences in your user account.

Time Position Orientation Groundspeed Altitude Reporting Facility
EDT Latitude Longitude Course Direction KTS MPH feet Rate Location/Type
08:02PM 25.8140 -79.5230 290° West 293 337 5,900  Level FlightAware
08:03PM 25.8230 -79.5510 290° West 292 336 5,900  Level FlightAware
08:03PM 25.8330 -79.5800 291° West 292 336 5,900  Level FlightAware
08:03PM 25.8450 -79.6150 291° West 291 335 5,900  Level FlightAware
08:04PM 25.8550 -79.6420 292° West 279 321 5,900 -300 Level FlightAware
08:04PM 25.8660 -79.6680 295° West 268 308 5,700 -600 Descending FlightAware
08:04PM 25.8770 -79.6920 297° West 267 307 5,500 -600 Descending FlightAware
08:05PM 25.8900 -79.7230 295° West 266 306 5,300 -720 Descending FlightAware
08:05PM 25.8950 -79.7350 295° West 266 306 5,100 -840 Descending FlightAware
08:05PM 25.9060 -79.7600 296° West 264 304 4,900 -720 Descending FlightAware
08:06PM 25.9190 -79.7910 295° West 263 303 4,600 -720 Descending FlightAware
08:06PM 25.9290 -79.8150 295° West 262 302 4,400 -780 Descending FlightAware
08:06PM 25.9400 -79.8400 296° West 257 296 4,100 -780 Descending FlightAware
08:07PM 25.9500 -79.8640 295° West 256 295 3,900 -720 Descending FlightAware
08:07PM 25.9620 -79.8930 295° West 250 288 3,600 -720 Descending FlightAware
08:08PM 25.9720 -79.9170 295° West 242 278 3,400 -720 Descending FlightAware
08:08PM 25.9800 -79.9340 298° West 238 274 3,200 -600 Descending FlightAware
08:08PM 25.9880 -79.9610 288° West 230 265 3,000 -360 Descending FlightAware
08:09PM 25.9880 -79.9960 270° West 231 266 2,900 -180 Descending FlightAware
08:09PM 25.9890 -80.0170 273° West 222 255 2,900  Level FlightAware
08:09PM 25.9890 -80.0430 270° West 220 253 2,900  Level FlightAware
08:10PM 25.9900 -80.0690 272° West 220 253 2,900  Level FlightAware
08:10PM 25.9910 -80.0890 273° West 219 252 2,900  Level FlightAware
08:10PM 25.9910 -80.1140 270° West 219 252 2,900  Level FlightAware
08:11PM 25.9920 -80.1370 273° West 220 253 2,900  Level FlightAware
08:11PM 25.9920 -80.1590 270° West 211 243 2,900 120 Level FlightAware
08:11PM 25.9930 -80.1820 273° West 204 235 3,000  Climbing FlightAware
08:12PM 25.9930 -80.1980 270° West 203 234 2,900 -180 Descending FlightAware
08:12PM 25.9940 -80.2190 273° West 204 235 2,900  Level FlightAware
08:12PM 25.9940 -80.2370 270° West 204 235 2,900  Level FlightAware
08:13PM 25.9950 -80.2580 273° West 205 236 2,900  Level FlightAware
08:13PM 25.9950 -80.2680 270° West 205 236 2,900  Level FlightAware
08:13PM 25.9950 -80.2920 270° West 204 235 2,900  Level FlightAware
08:14PM 25.9960 -80.3130 273° West 205 236 2,900  Level FlightAware
08:14PM 25.9960 -80.3290 270° West 205 236 2,900  Level FlightAware
08:14PM 25.9970 -80.3550 272° West 205 236 2,900  Level FlightAware
08:15PM 25.9970 -80.3760 270° West 205 236 2,900  Level FlightAware
08:15PM 25.9980 -80.3920 274° West 204 235 2,900  Level FlightAware
08:15PM 26.0020 -80.4020 294° West 200 230 2,900  Level FlightAware
08:15PM 26.0050 -80.4050 318° Northwest 195 224 2,900  Level FlightAware
08:15PM 26.0130 -80.4110 326° Northwest 188 216 2,900  Level FlightAware
08:15PM 26.0250 -80.4140 347° North 178 205 2,900 120 Level FlightAware
08:16PM 26.0420 -80.4160 354° North 177 204 3,000 60 Climbing FlightAware
08:16PM 26.0630 -80.4080 19° North 168 193 3,000  Level FlightAware
08:16PM 26.0670 -80.4000 61° Northeast 166 191 3,000  Level FlightAware
08:17PM 26.0740 -80.3870 59° Northeast 162 186 3,000  Level FlightAware
08:17PM 26.0770 -80.3780 70° East 163 188 3,000  Level FlightAware
08:17PM 26.0770 -80.3690 90° East 164 189 3,000 -180 Level FlightAware
08:18PM 26.0780 -80.3430 88° East 167 192 2,900 -420 Descending FlightAware
08:18PM 26.0780 -80.3270 90° East 161 185 2,700 -840 Descending FlightAware
08:18PM 26.0780 -80.3060 90° East 160 184 2,300 -960 Descending FlightAware
08:19PM 26.0780 -80.2860 90° East 158 182 1,900 -780 Descending FlightAware
08:19PM 26.0780 -80.2740 90° East 153 176 1,800 -720 Descending FlightAware
08:19PM 26.0780 -80.2590 90° East 144 166 1,500 -840 Descending FlightAware
08:20PM 26.0770 -80.2480 96° East 133 153 1,300 -720 Descending FlightAware
08:20PM 26.0770 -80.2350 90° East 123 142 1,100 -660 Descending FlightAware
08:20PM 26.0770 -80.2230 90° East 124 143 900 -600 Descending FlightAware
08:21PM 26.0770 -80.2030 90° East 123 142 600 -600 Descending FlightAware
08:21PM 26.0770 -80.1970 90° East 123 142 500 -540 Descending FlightAware
08:21PM 26.0770 -80.1820 90° East 122 140 300 -540 Descending FlightAware
08:22PM 26.0770 -80.1640 90° East 123 142 -660 Descending FlightAware
08:22PM 26.0770 -80.1490 90° East 123 142  Level FlightAware